• Join FlightAware (Why Join?)
  • Login
  • US Flag 
06:17AM EDT


 

Airport Tracker/Info


-or-


 

Live Flight TrackerFlight Track Log ✈ RPA3425 ✈ 05-May-2012 ✈ KALB - KCLT

Flight Track Log - Related Links

Times and Time Zones

All times are in EDT time to prevent confusion due to time zone crossing. See the RPA3425 flight status page for this flight to view local times or setup timezone preferences in your user account.

Time Position Orientation Groundspeed Altitude Reporting Facility
EDT Latitude Longitude Course Direction KTS MPH feet Rate Location/Type
05:02PM 42.7631 -73.8061 269° West 140 161 1,400  Level Boston Center
05:07PM 42.7553 -74.2272 166° South 308 354 16,100 2,820 Climbing Boston Center
05:08PM 42.6494 -74.1903 158° South 293 337 18,800 2,340 Climbing Boston Center
05:09PM 42.5586 -74.1397 154° Southeast 348 400 20,800 1,980 Climbing Boston Center
05:10PM 42.4553 -74.0722 152° Southeast 377 434 22,800 1,980 Climbing Boston Center
05:11PM 42.3500 -73.9964 153° Southeast 412 474 24,800 2,040 Climbing Boston Center
05:12PM 42.2406 -73.9208 157° South 431 496 26,900 1,800 Climbing Boston Center
05:13PM 42.1247 -73.8536 188° South 444 511 28,400 1,500 Climbing Boston Center
05:14PM 42.0100 -73.8764 198° South 417 480 30,000 1,320 Climbing Boston Center
05:15PM 41.9008 -73.9239 198° South 405 466 31,100 1,140 Climbing Boston Center
05:18PM 41.6308 -74.0378 201° Southwest 431 496 33,900 1,140 Climbing New York Center
05:19PM 41.5358 -74.0856 197° South 426 490 34,900 960 Climbing New York Center
05:20PM 41.4200 -74.1325 198° South 426 490 35,900 480 Climbing New York Center
05:21PM 41.3144 -74.1769 199° South 440 506 36,000  Climbing New York Center
05:22PM 41.1814 -74.2392 197° South 435 501 35,900  Descending New York Center
05:23PM 41.0656 -74.2853 197° South 435 501 36,000  Climbing New York Center
05:24PM 40.9475 -74.3342 199° South 435 501 36,000  Level New York Center
05:25PM 40.8375 -74.3833 216° Southwest 435 501 36,000  Level New York Center
05:26PM 40.7453 -74.4714 233° Southwest 413 475 36,000  Level New York Center
05:27PM 40.6792 -74.5883 229° Southwest 404 465 36,000  Level New York Center
05:28PM 40.6067 -74.6992 231° Southwest 404 465 36,000  Level New York Center
05:29PM 40.5361 -74.8153 225° Southwest 411 473 36,000  Level New York Center
05:30PM 40.4553 -74.9222 227° Southwest 423 487 36,000  Level New York Center
05:31PM 40.3783 -75.0322 227° Southwest 418 481 36,000  Level New York Center
05:32PM 40.2994 -75.1417 227° Southwest 418 481 36,000  Level New York Center
05:33PM 40.2222 -75.2508 228° Southwest 413 475 36,000  Level New York Center
05:34PM 40.1583 -75.3444 226° Southwest 413 475 36,000  Level New York Center
05:35PM 40.0789 -75.4533 227° Southwest 413 475 36,000  Level New York Center
05:36PM 39.9994 -75.5644 227° Southwest 413 475 36,000  Level New York Center
05:37PM 39.9219 -75.6728 231° Southwest 413 475 36,000  Level New York Center
05:38PM 39.8483 -75.7894 229° Southwest 419 482 36,000  Level New York Center
05:39PM 39.7725 -75.9028 230° Southwest 424 488 36,000  Level New York Center
05:40PM 39.6919 -76.0264 234° Southwest 418 481 36,000  Level New York Center
05:41PM 39.6206 -76.1519 231° Southwest 411 473 36,000  Level Washington Center
05:42PM 39.5514 -76.2644 229° Southwest 416 479 36,000  Level Washington Center
05:43PM 39.4778 -76.3739 229° Southwest 416 479 36,000  Level Washington Center
05:44PM 39.4019 -76.4886 230° Southwest 416 479 36,000  Level Washington Center
05:45PM 39.3281 -76.6031 231° Southwest 422 486 36,000  Level Washington Center
05:46PM 39.2542 -76.7200 229° Southwest 422 486 36,000  Level Washington Center
05:47PM 39.1864 -76.8208 231° Southwest 422 486 36,000  Level Washington Center
05:48PM 39.1144 -76.9344 229° Southwest 422 486 36,000  Level Washington Center
05:49PM 39.0400 -77.0428 221° Southwest 422 486 36,000 -600 Level Washington Center
05:50PM 38.9514 -77.1425 220° Southwest 422 486 34,900 -1,020 Descending Washington Center
05:51PM 38.8647 -77.2367 220° Southwest 422 486 34,000 -480 Descending Washington Center
05:52PM 38.7736 -77.3331 220° Southwest 422 486 34,000  Level Washington Center
05:53PM 38.6761 -77.4372 222° Southwest 422 486 34,000  Level Washington Center
05:54PM 38.5892 -77.5386 219° Southwest 422 486 34,000  Level Washington Center
05:55PM 38.4978 -77.6344 220° Southwest 427 491 34,000  Level Washington Center
05:56PM 38.4064 -77.7325 221° Southwest 433 498 34,000  Level Washington Center
05:57PM 38.3172 -77.8306 220° Southwest 433 498 34,000  Level Washington Center
05:58PM 38.2278 -77.9256 219° Southwest 433 498 34,000  Level Washington Center
05:59PM 38.1342 -78.0231 220° Southwest 433 498 34,000  Level Washington Center
06:00PM 38.0550 -78.1075 226° Southwest 433 498 34,000  Level Washington Center
06:01PM 37.9758 -78.2128 229° Southwest 423 487 34,000  Level Washington Center
06:02PM 37.9003 -78.3233 229° Southwest 414 476 34,000  Level Washington Center
06:03PM 37.8161 -78.4467 227° Southwest 424 488 34,000  Level Washington Center
06:04PM 37.7383 -78.5539 228° Southwest 424 488 34,000  Level Washington Center
06:05PM 37.6606 -78.6636 228° Southwest 424 488 34,000  Level Washington Center
06:06PM 37.5847 -78.7708 230° Southwest 424 488 34,000  Level Washington Center
06:07PM 37.5175 -78.8700 227° Southwest 424 488 34,000 -180 Level Washington Center
06:08PM 37.4414 -78.9739 227° Southwest 424 488 33,700 -960 Descending Washington Center
06:09PM 37.3633 -79.0803 229° Southwest 424 488 32,100 -900 Descending Washington Center
06:10PM 37.2872 -79.1892 220° Southwest 424 488 32,000 -60 Descending Washington Center
06:11PM 37.1967 -79.2839 213° Southwest 430 495 32,000  Level Washington Center
06:12PM 37.0981 -79.3650 214° Southwest 430 495 32,000  Level Washington Center
06:13PM 36.9889 -79.4558 213° Southwest 430 495 32,000  Level Washington Center
06:14PM 36.8903 -79.5367 213° Southwest 435 501 32,000 -360 Level Washington Center
06:15PM 36.7372 -79.6586 214° Southwest 434 499 31,100 -1,200 Descending Atlanta Center
06:16PM 36.6419 -79.7389 213° Southwest 429 494 28,900 -2,160 Descending Atlanta Center
06:17PM 36.5444 -79.8164 213° Southwest 423 487 26,800 -2,100 Descending Atlanta Center
06:18PM 36.4533 -79.8908 213° Southwest 418 481 24,700 -2,280 Descending Atlanta Center
06:19PM 36.3539 -79.9708 215° Southwest 403 464 22,300 -1,380 Descending Atlanta Center
06:20PM 36.2686 -80.0447 214° Southwest 393 452 22,000 -420 Descending Atlanta Center
06:21PM 36.1814 -80.1183 214° Southwest 383 441 21,500 -1,260 Descending Atlanta Center
06:22PM 36.0939 -80.1919 215° Southwest 383 441 19,500 -1,980 Descending Atlanta Center
06:23PM 36.0208 -80.2544 216° Southwest 383 441 17,600 -1,860 Descending Atlanta Center
06:24PM 35.9417 -80.3250 216° Southwest 366 421 15,800 -1,860 Descending Atlanta Center
06:25PM 35.8622 -80.3953 214° Southwest 361 415 13,900 -1,680 Descending Atlanta Center
06:26PM 35.7953 -80.4519 214° Southwest 323 372 12,800 -1,560 Descending Atlanta Center
06:27PM 35.7219 -80.5139 214° Southwest 300 345 11,000 -900 Descending Atlanta Center
06:28PM 35.6525 -80.5706 215° Southwest 296 341 11,000  Level Atlanta Center
06:29PM 35.5956 -80.6189 213° Southwest 297 342 11,000  Level Atlanta Center
06:30PM 35.5219 -80.6783 214° Southwest 295 339 11,000 -240 Level Atlanta Center
06:31PM 35.4486 -80.7400 214° Southwest 294 338 10,500 -960 Descending Atlanta Center
06:32PM 35.3750 -80.8014 208° Southwest 300 345 9,000 -780 Descending Atlanta Center
06:33PM 35.3178 -80.8392 178° South 298 343 9,000  Level Atlanta Center
06:34PM 35.2342 -80.8350 176° South 280 322 9,000 -600 Level Atlanta Center
06:35PM 35.1567 -80.8278 179° South 261 300 7,800 -1,200 Descending Atlanta Center
06:36PM 35.0794 -80.8256 175° South 254 292 6,500 -1,380 Descending Atlanta Center
06:37PM 35.0125 -80.8181 227° Southwest 244 281 5,000 -1,020 Descending Atlanta Center
06:38PM 34.9742 -80.8678 309° West 211 243 4,400 -540 Descending Atlanta Center
06:39PM 35.0003 -80.9072 345° North 175 201 4,000 -420 Descending Atlanta Center
06:40PM 35.0486 -80.9233 355° North 185 213 3,600 -780 Descending Atlanta Center
06:41PM 35.1031 -80.9289 357° North 185 213 2,500 -960 Descending Atlanta Center
06:42PM 35.1489 -80.9322 357° North 165 190 1,700 -840 Descending Atlanta Center